sensor_id;sensor_type;location;lat;lon;timestamp;temperature;humidity
19279;DHT22;9773;47.062;15.446;2023-03-20T00:01:33;8.70;94.40
19279;DHT22;9773;47.062;15.446;2023-03-20T00:03:59;8.70;94.40
19279;DHT22;9773;47.062;15.446;2023-03-20T00:06:27;8.80;94.40
19279;DHT22;9773;47.062;15.446;2023-03-20T00:08:56;8.90;94.40
19279;DHT22;9773;47.062;15.446;2023-03-20T00:11:38;8.90;94.30
19279;DHT22;9773;47.062;15.446;2023-03-20T00:14:08;8.90;94.40
19279;DHT22;9773;47.062;15.446;2023-03-20T00:16:39;9.00;94.40
19279;DHT22;9773;47.062;15.446;2023-03-20T00:19:09;9.10;94.20
19279;DHT22;9773;47.062;15.446;2023-03-20T00:21:38;9.00;94.20
19279;DHT22;9773;47.062;15.446;2023-03-20T00:24:04;9.00;94.20
19279;DHT22;9773;47.062;15.446;2023-03-20T00:26:33;9.00;94.10
19279;DHT22;9773;47.062;15.446;2023-03-20T00:29:02;8.90;94.20
19279;DHT22;9773;47.062;15.446;2023-03-20T00:31:31;8.90;94.40
19279;DHT22;9773;47.062;15.446;2023-03-20T00:33:59;8.90;94.30
19279;DHT22;9773;47.062;15.446;2023-03-20T00:36:26;8.90;94.30
19279;DHT22;9773;47.062;15.446;2023-03-20T00:38:52;8.80;94.20
19279;DHT22;9773;47.062;15.446;2023-03-20T00:41:29;8.80;94.40
19279;DHT22;9773;47.062;15.446;2023-03-20T00:44:02;8.80;94.40
19279;DHT22;9773;47.062;15.446;2023-03-20T00:46:35;8.70;94.40
19279;DHT22;9773;47.062;15.446;2023-03-20T00:49:02;8.70;94.50
19279;DHT22;9773;47.062;15.446;2023-03-20T00:51:28;8.70;94.40
19279;DHT22;9773;47.062;15.446;2023-03-20T00:53:54;8.70;94.40
19279;DHT22;9773;47.062;15.446;2023-03-20T00:56:35;8.70;94.60
19279;DHT22;9773;47.062;15.446;2023-03-20T00:59:04;8.80;94.60
19279;DHT22;9773;47.062;15.446;2023-03-20T01:01:31;8.80;94.60
19279;DHT22;9773;47.062;15.446;2023-03-20T01:03:58;8.80;94.70
19279;DHT22;9773;47.062;15.446;2023-03-20T01:06:24;8.80;94.60
19279;DHT22;9773;47.062;15.446;2023-03-20T01:08:50;8.70;94.70
19279;DHT22;9773;47.062;15.446;2023-03-20T01:11:21;8.70;94.70
19279;DHT22;9773;47.062;15.446;2023-03-20T01:13:47;8.60;94.80
19279;DHT22;9773;47.062;15.446;2023-03-20T01:16:20;8.60;94.80
19279;DHT22;9773;47.062;15.446;2023-03-20T01:18:46;8.50;95.00
19279;DHT22;9773;47.062;15.446;2023-03-20T01:21:12;8.60;95.00
19279;DHT22;9773;47.062;15.446;2023-03-20T01:23:38;8.60;95.00
19279;DHT22;9773;47.062;15.446;2023-03-20T01:26:11;8.60;95.00
19279;DHT22;9773;47.062;15.446;2023-03-20T01:28:43;8.50;95.00
19279;DHT22;9773;47.062;15.446;2023-03-20T01:31:09;8.50;95.00
19279;DHT22;9773;47.062;15.446;2023-03-20T01:33:35;8.60;95.10
19279;DHT22;9773;47.062;15.446;2023-03-20T01:36:01;8.50;95.10
19279;DHT22;9773;47.062;15.446;2023-03-20T01:38:27;8.50;95.20
19279;DHT22;9773;47.062;15.446;2023-03-20T01:41:15;8.40;95.20
19279;DHT22;9773;47.062;15.446;2023-03-20T01:43:42;8.50;95.20
19279;DHT22;9773;47.062;15.446;2023-03-20T01:46:25;8.50;95.10
19279;DHT22;9773;47.062;15.446;2023-03-20T01:51:21;8.40;95.10
19279;DHT22;9773;47.062;15.446;2023-03-20T01:53:52;8.50;95.00
19279;DHT22;9773;47.062;15.446;2023-03-20T01:56:19;8.30;95.00
19279;DHT22;9773;47.062;15.446;2023-03-20T01:58:49;8.20;95.20
19279;DHT22;9773;47.062;15.446;2023-03-20T02:01:18;8.10;95.20
19279;DHT22;9773;47.062;15.446;2023-03-20T02:03:47;8.10;95.20
19279;DHT22;9773;47.062;15.446;2023-03-20T02:06:14;8.10;95.30
19279;DHT22;9773;47.062;15.446;2023-03-20T02:08:46;8.10;95.40
19279;DHT22;9773;47.062;15.446;2023-03-20T02:11:14;8.10;95.20
19279;DHT22;9773;47.062;15.446;2023-03-20T02:13:42;8.20;95.10
19279;DHT22;9773;47.062;15.446;2023-03-20T02:16:13;8.20;95.20
19279;DHT22;9773;47.062;15.446;2023-03-20T02:18:42;8.20;95.20
19279;DHT22;9773;47.062;15.446;2023-03-20T02:47:10;8.30;95.20
19279;DHT22;9773;47.062;15.446;2023-03-20T02:50:12;8.40;95.30
19279;DHT22;9773;47.062;15.446;2023-03-20T02:55:38;8.30;95.40
19279;DHT22;9773;47.062;15.446;2023-03-20T02:58:18;8.30;95.30
19279;DHT22;9773;47.062;15.446;2023-03-20T03:03:28;8.30;95.50
19279;DHT22;9773;47.062;15.446;2023-03-20T03:06:09;8.30;95.40
19279;DHT22;9773;47.062;15.446;2023-03-20T03:08:42;8.40;95.30
19279;DHT22;9773;47.062;15.446;2023-03-20T03:11:09;8.20;95.50
19279;DHT22;9773;47.062;15.446;2023-03-20T03:13:38;8.30;95.40
19279;DHT22;9773;47.062;15.446;2023-03-20T03:16:09;8.20;95.50
19279;DHT22;9773;47.062;15.446;2023-03-20T03:18:38;8.20;95.50
19279;DHT22;9773;47.062;15.446;2023-03-20T03:21:06;8.10;95.70
19279;DHT22;9773;47.062;15.446;2023-03-20T03:23:48;8.10;95.80
19279;DHT22;9773;47.062;15.446;2023-03-20T03:26:26;8.20;95.60
19279;DHT22;9773;47.062;15.446;2023-03-20T03:28:58;8.40;95.40
19279;DHT22;9773;47.062;15.446;2023-03-20T03:31:26;8.40;95.50
19279;DHT22;9773;47.062;15.446;2023-03-20T03:33:56;8.30;95.60
19279;DHT22;9773;47.062;15.446;2023-03-20T03:39:26;8.40;95.80
19279;DHT22;9773;47.062;15.446;2023-03-20T03:44:43;8.40;95.70
19279;DHT22;9773;47.062;15.446;2023-03-20T03:47:39;8.30;95.70
19279;DHT22;9773;47.062;15.446;2023-03-20T03:52:46;8.40;95.80
19279;DHT22;9773;47.062;15.446;2023-03-20T03:55:19;8.30;95.80
19279;DHT22;9773;47.062;15.446;2023-03-20T03:57:50;8.30;95.90
19279;DHT22;9773;47.062;15.446;2023-03-20T04:00:20;8.30;95.90
19279;DHT22;9773;47.062;15.446;2023-03-20T04:02:52;8.30;95.90
19279;DHT22;9773;47.062;15.446;2023-03-20T04:05:19;8.30;96.00
19279;DHT22;9773;47.062;15.446;2023-03-20T04:07:47;8.30;96.00
19279;DHT22;9773;47.062;15.446;2023-03-20T04:10:13;8.30;96.00
19279;DHT22;9773;47.062;15.446;2023-03-20T04:12:41;8.30;96.00
19279;DHT22;9773;47.062;15.446;2023-03-20T04:15:07;8.30;95.90
19279;DHT22;9773;47.062;15.446;2023-03-20T04:17:33;8.30;95.90
19279;DHT22;9773;47.062;15.446;2023-03-20T04:19:59;8.30;96.10
19279;DHT22;9773;47.062;15.446;2023-03-20T04:22:25;8.30;95.90
19279;DHT22;9773;47.062;15.446;2023-03-20T04:24:51;8.30;95.80
19279;DHT22;9773;47.062;15.446;2023-03-20T04:27:17;8.30;96.00
19279;DHT22;9773;47.062;15.446;2023-03-20T04:29:43;8.40;95.90
19279;DHT22;9773;47.062;15.446;2023-03-20T04:32:09;8.50;95.70
19279;DHT22;9773;47.062;15.446;2023-03-20T04:34:35;8.40;95.70
19279;DHT22;9773;47.062;15.446;2023-03-20T04:37:02;8.30;95.80
19279;DHT22;9773;47.062;15.446;2023-03-20T04:39:29;8.30;95.80
19279;DHT22;9773;47.062;15.446;2023-03-20T04:41:56;8.30;95.90
19279;DHT22;9773;47.062;15.446;2023-03-20T04:44:21;8.30;95.90
19279;DHT22;9773;47.062;15.446;2023-03-20T04:46:47;8.20;95.90
19279;DHT22;9773;47.062;15.446;2023-03-20T04:49:13;8.20;96.10
19279;DHT22;9773;47.062;15.446;2023-03-20T04:51:38;8.30;96.00
19279;DHT22;9773;47.062;15.446;2023-03-20T04:54:05;8.30;96.00
19279;DHT22;9773;47.062;15.446;2023-03-20T04:56:30;8.30;96.10
19279;DHT22;9773;47.062;15.446;2023-03-20T04:58:56;8.40;96.00
19279;DHT22;9773;47.062;15.446;2023-03-20T05:01:22;8.30;96.10
19279;DHT22;9773;47.062;15.446;2023-03-20T05:03:48;8.40;96.10
19279;DHT22;9773;47.062;15.446;2023-03-20T05:06:14;8.40;96.00
19279;DHT22;9773;47.062;15.446;2023-03-20T05:08:39;8.50;96.00
19279;DHT22;9773;47.062;15.446;2023-03-20T05:11:05;8.50;95.90
19279;DHT22;9773;47.062;15.446;2023-03-20T05:13:32;8.50;96.00
19279;DHT22;9773;47.062;15.446;2023-03-20T05:15:58;8.50;95.90
19279;DHT22;9773;47.062;15.446;2023-03-20T05:18:24;8.50;96.00
19279;DHT22;9773;47.062;15.446;2023-03-20T05:20:50;8.50;96.00
19279;DHT22;9773;47.062;15.446;2023-03-20T05:23:15;8.50;96.00
19279;DHT22;9773;47.062;15.446;2023-03-20T05:25:41;8.60;96.00
19279;DHT22;9773;47.062;15.446;2023-03-20T05:28:07;8.60;96.00
19279;DHT22;9773;47.062;15.446;2023-03-20T05:30:33;8.60;96.00
19279;DHT22;9773;47.062;15.446;2023-03-20T05:32:59;8.60;96.00
19279;DHT22;9773;47.062;15.446;2023-03-20T05:35:24;8.60;96.10
19279;DHT22;9773;47.062;15.446;2023-03-20T05:37:50;8.50;96.00
19279;DHT22;9773;47.062;15.446;2023-03-20T05:40:16;8.50;96.10
19279;DHT22;9773;47.062;15.446;2023-03-20T05:42:44;8.60;96.10
19279;DHT22;9773;47.062;15.446;2023-03-20T05:45:10;8.60;95.90
19279;DHT22;9773;47.062;15.446;2023-03-20T05:47:36;8.70;96.00
19279;DHT22;9773;47.062;15.446;2023-03-20T05:50:02;8.60;96.00
19279;DHT22;9773;47.062;15.446;2023-03-20T05:52:28;8.60;96.10
19279;DHT22;9773;47.062;15.446;2023-03-20T05:54:54;8.60;96.10
19279;DHT22;9773;47.062;15.446;2023-03-20T05:57:19;8.70;96.00
19279;DHT22;9773;47.062;15.446;2023-03-20T05:59:46;8.70;96.30
19279;DHT22;9773;47.062;15.446;2023-03-20T06:02:12;8.80;96.00
19279;DHT22;9773;47.062;15.446;2023-03-20T06:04:37;8.90;95.80
19279;DHT22;9773;47.062;15.446;2023-03-20T06:07:04;9.00;95.80
19279;DHT22;9773;47.062;15.446;2023-03-20T06:09:30;9.00;95.90
19279;DHT22;9773;47.062;15.446;2023-03-20T06:11:57;9.10;95.70
19279;DHT22;9773;47.062;15.446;2023-03-20T06:14:23;9.10;95.70
19279;DHT22;9773;47.062;15.446;2023-03-20T06:16:49;9.20;95.70
19279;DHT22;9773;47.062;15.446;2023-03-20T06:19:15;9.30;95.70
19279;DHT22;9773;47.062;15.446;2023-03-20T06:21:41;9.30;95.70
19279;DHT22;9773;47.062;15.446;2023-03-20T06:24:06;9.30;95.70
19279;DHT22;9773;47.062;15.446;2023-03-20T06:26:32;9.30;95.70
19279;DHT22;9773;47.062;15.446;2023-03-20T06:29:00;9.30;95.60
19279;DHT22;9773;47.062;15.446;2023-03-20T06:31:26;9.40;95.50
19279;DHT22;9773;47.062;15.446;2023-03-20T06:33:51;9.40;95.50
19279;DHT22;9773;47.062;15.446;2023-03-20T06:36:17;9.40;95.60
19279;DHT22;9773;47.062;15.446;2023-03-20T06:38:43;9.50;95.50
19279;DHT22;9773;47.062;15.446;2023-03-20T06:41:09;9.50;95.50
19279;DHT22;9773;47.062;15.446;2023-03-20T06:43:34;9.60;95.50
19279;DHT22;9773;47.062;15.446;2023-03-20T06:46:01;9.70;95.40
19279;DHT22;9773;47.062;15.446;2023-03-20T06:48:27;9.80;95.40
19279;DHT22;9773;47.062;15.446;2023-03-20T06:50:53;9.90;95.40
19279;DHT22;9773;47.062;15.446;2023-03-20T06:53:19;10.00;94.80
19279;DHT22;9773;47.062;15.446;2023-03-20T06:55:49;10.10;94.70
19279;DHT22;9773;47.062;15.446;2023-03-20T06:58:15;10.20;94.60
19279;DHT22;9773;47.062;15.446;2023-03-20T07:00:41;10.30;94.40
19279;DHT22;9773;47.062;15.446;2023-03-20T07:03:07;10.40;94.50
19279;DHT22;9773;47.062;15.446;2023-03-20T07:05:34;10.50;94.70
19279;DHT22;9773;47.062;15.446;2023-03-20T07:08:00;10.60;94.40
19279;DHT22;9773;47.062;15.446;2023-03-20T07:10:26;10.70;94.30
19279;DHT22;9773;47.062;15.446;2023-03-20T07:12:52;10.80;94.40
19279;DHT22;9773;47.062;15.446;2023-03-20T07:15:19;10.90;94.20
19279;DHT22;9773;47.062;15.446;2023-03-20T07:17:45;10.90;94.20
19279;DHT22;9773;47.062;15.446;2023-03-20T07:20:12;11.00;94.20
19279;DHT22;9773;47.062;15.446;2023-03-20T07:22:39;11.00;94.20
19279;DHT22;9773;47.062;15.446;2023-03-20T07:25:08;11.10;94.30
19279;DHT22;9773;47.062;15.446;2023-03-20T07:27:34;11.10;94.30
19279;DHT22;9773;47.062;15.446;2023-03-20T07:30:01;11.10;94.30
19279;DHT22;9773;47.062;15.446;2023-03-20T07:32:26;11.30;94.30
19279;DHT22;9773;47.062;15.446;2023-03-20T07:34:53;11.30;94.00
19279;DHT22;9773;47.062;15.446;2023-03-20T07:37:19;11.40;93.90
19279;DHT22;9773;47.062;15.446;2023-03-20T07:39:45;11.50;93.70
19279;DHT22;9773;47.062;15.446;2023-03-20T07:42:11;11.60;93.50
19279;DHT22;9773;47.062;15.446;2023-03-20T07:44:38;11.70;93.50
19279;DHT22;9773;47.062;15.446;2023-03-20T07:47:04;11.70;93.50
19279;DHT22;9773;47.062;15.446;2023-03-20T07:49:32;11.80;94.40
19279;DHT22;9773;47.062;15.446;2023-03-20T07:51:57;11.80;94.40
19279;DHT22;9773;47.062;15.446;2023-03-20T07:54:23;11.90;94.00
19279;DHT22;9773;47.062;15.446;2023-03-20T07:56:49;12.00;94.60
19279;DHT22;9773;47.062;15.446;2023-03-20T07:59:16;12.00;94.00
19279;DHT22;9773;47.062;15.446;2023-03-20T08:01:42;12.00;94.60
19279;DHT22;9773;47.062;15.446;2023-03-20T08:04:08;12.10;94.00
19279;DHT22;9773;47.062;15.446;2023-03-20T08:06:33;12.20;94.00
19279;DHT22;9773;47.062;15.446;2023-03-20T08:08:59;12.40;94.00
19279;DHT22;9773;47.062;15.446;2023-03-20T08:11:26;12.60;93.70
19279;DHT22;9773;47.062;15.446;2023-03-20T08:13:52;12.80;93.20
19279;DHT22;9773;47.062;15.446;2023-03-20T08:16:19;12.90;93.00
19279;DHT22;9773;47.062;15.446;2023-03-20T08:18:44;13.00;92.80
19279;DHT22;9773;47.062;15.446;2023-03-20T08:21:10;13.00;93.20
19279;DHT22;9773;47.062;15.446;2023-03-20T08:23:36;13.10;93.20
19279;DHT22;9773;47.062;15.446;2023-03-20T08:26:02;13.30;93.10
19279;DHT22;9773;47.062;15.446;2023-03-20T08:28:28;13.40;92.80
19279;DHT22;9773;47.062;15.446;2023-03-20T08:30:53;13.50;92.70
19279;DHT22;9773;47.062;15.446;2023-03-20T08:33:19;13.60;92.40
19279;DHT22;9773;47.062;15.446;2023-03-20T08:35:58;13.70;92.40
19279;DHT22;9773;47.062;15.446;2023-03-20T08:38:24;13.60;92.20
19279;DHT22;9773;47.062;15.446;2023-03-20T08:40:50;13.60;92.40
19279;DHT22;9773;47.062;15.446;2023-03-20T08:43:16;13.60;92.40
19279;DHT22;9773;47.062;15.446;2023-03-20T08:45:43;13.70;92.50
19279;DHT22;9773;47.062;15.446;2023-03-20T08:48:08;13.70;92.50
19279;DHT22;9773;47.062;15.446;2023-03-20T08:50:36;13.90;92.40
19279;DHT22;9773;47.062;15.446;2023-03-20T08:53:02;14.20;92.10
19279;DHT22;9773;47.062;15.446;2023-03-20T08:55:28;14.40;92.10
19279;DHT22;9773;47.062;15.446;2023-03-20T08:57:54;14.60;92.00
19279;DHT22;9773;47.062;15.446;2023-03-20T09:00:22;14.80;91.60
19279;DHT22;9773;47.062;15.446;2023-03-20T09:02:48;14.90;91.20
19279;DHT22;9773;47.062;15.446;2023-03-20T09:05:15;15.00;91.20
19279;DHT22;9773;47.062;15.446;2023-03-20T09:07:41;15.10;91.30
19279;DHT22;9773;47.062;15.446;2023-03-20T09:10:08;15.10;91.40
19279;DHT22;9773;47.062;15.446;2023-03-20T09:12:35;15.40;90.90
19279;DHT22;9773;47.062;15.446;2023-03-20T09:15:02;15.50;90.50
19279;DHT22;9773;47.062;15.446;2023-03-20T09:17:28;15.50;90.60
19279;DHT22;9773;47.062;15.446;2023-03-20T09:19:56;15.50;90.60
19279;DHT22;9773;47.062;15.446;2023-03-20T09:22:22;15.60;90.60
19279;DHT22;9773;47.062;15.446;2023-03-20T09:24:48;15.60;90.60
19279;DHT22;9773;47.062;15.446;2023-03-20T09:27:14;15.60;90.70
19279;DHT22;9773;47.062;15.446;2023-03-20T09:29:40;15.60;90.60
19279;DHT22;9773;47.062;15.446;2023-03-20T09:32:09;15.70;90.50
19279;DHT22;9773;47.062;15.446;2023-03-20T09:34:35;15.80;90.50
19279;DHT22;9773;47.062;15.446;2023-03-20T09:37:01;15.90;90.30
19279;DHT22;9773;47.062;15.446;2023-03-20T09:39:27;16.00;90.40
19279;DHT22;9773;47.062;15.446;2023-03-20T09:41:53;16.10;90.20
19279;DHT22;9773;47.062;15.446;2023-03-20T09:44:38;16.20;90.10
19279;DHT22;9773;47.062;15.446;2023-03-20T09:47:17;16.50;90.10
19279;DHT22;9773;47.062;15.446;2023-03-20T09:50:07;16.70;89.40
19279;DHT22;9773;47.062;15.446;2023-03-20T09:53:03;16.90;88.50
19279;DHT22;9773;47.062;15.446;2023-03-20T09:55:35;16.90;88.10
19279;DHT22;9773;47.062;15.446;2023-03-20T09:58:14;16.90;87.60
19279;DHT22;9773;47.062;15.446;2023-03-20T10:00:44;16.80;87.30
19279;DHT22;9773;47.062;15.446;2023-03-20T10:03:41;16.80;87.90
19279;DHT22;9773;47.062;15.446;2023-03-20T10:06:13;16.90;88.20
19279;DHT22;9773;47.062;15.446;2023-03-20T10:08:39;16.90;87.90
19279;DHT22;9773;47.062;15.446;2023-03-20T10:13:57;16.90;89.40
19279;DHT22;9773;47.062;15.446;2023-03-20T10:21:44;17.00;87.50
19279;DHT22;9773;47.062;15.446;2023-03-20T10:24:37;16.90;87.10
19279;DHT22;9773;47.062;15.446;2023-03-20T10:27:05;16.90;87.30
19279;DHT22;9773;47.062;15.446;2023-03-20T10:29:47;16.90;87.10
19279;DHT22;9773;47.062;15.446;2023-03-20T10:40:34;17.20;87.30
19279;DHT22;9773;47.062;15.446;2023-03-20T10:43:05;17.40;87.20
19279;DHT22;9773;47.062;15.446;2023-03-20T10:48:23;17.60;86.20
19279;DHT22;9773;47.062;15.446;2023-03-20T10:50:54;17.60;84.90
19279;DHT22;9773;47.062;15.446;2023-03-20T10:55:59;17.50;84.80
19279;DHT22;9773;47.062;15.446;2023-03-20T10:58:29;17.50;84.50
19279;DHT22;9773;47.062;15.446;2023-03-20T11:00:58;17.20;83.50
19279;DHT22;9773;47.062;15.446;2023-03-20T11:03:27;17.10;84.20
19279;DHT22;9773;47.062;15.446;2023-03-20T11:06:00;17.00;84.30
19279;DHT22;9773;47.062;15.446;2023-03-20T11:08:33;17.10;84.20
19279;DHT22;9773;47.062;15.446;2023-03-20T11:11:02;17.20;84.00
19279;DHT22;9773;47.062;15.446;2023-03-20T11:13:30;17.20;84.30
19279;DHT22;9773;47.062;15.446;2023-03-20T11:15:56;17.30;84.40
19279;DHT22;9773;47.062;15.446;2023-03-20T11:18:31;17.40;84.00
19279;DHT22;9773;47.062;15.446;2023-03-20T11:21:00;17.30;82.60
19279;DHT22;9773;47.062;15.446;2023-03-20T11:23:32;17.20;82.80
19279;DHT22;9773;47.062;15.446;2023-03-20T11:26:00;17.10;83.30
19279;DHT22;9773;47.062;15.446;2023-03-20T11:31:18;17.00;83.00
19279;DHT22;9773;47.062;15.446;2023-03-20T11:36:29;17.00;82.70
19279;DHT22;9773;47.062;15.446;2023-03-20T11:39:22;16.90;82.70
19279;DHT22;9773;47.062;15.446;2023-03-20T11:41:53;16.90;82.80
19279;DHT22;9773;47.062;15.446;2023-03-20T11:44:29;16.90;82.70
19279;DHT22;9773;47.062;15.446;2023-03-20T11:49:23;17.10;83.00
19279;DHT22;9773;47.062;15.446;2023-03-20T11:51:51;17.30;82.60
19279;DHT22;9773;47.062;15.446;2023-03-20T11:54:20;17.30;81.30
19279;DHT22;9773;47.062;15.446;2023-03-20T11:56:55;17.30;81.70
19279;DHT22;9773;47.062;15.446;2023-03-20T11:59:21;17.40;81.90
19279;DHT22;9773;47.062;15.446;2023-03-20T12:01:52;17.40;81.20
19279;DHT22;9773;47.062;15.446;2023-03-20T12:04:32;17.20;81.20
19279;DHT22;9773;47.062;15.446;2023-03-20T12:07:23;17.20;82.20
19279;DHT22;9773;47.062;15.446;2023-03-20T12:10:06;17.20;82.90
19279;DHT22;9773;47.062;15.446;2023-03-20T12:15:32;17.40;83.80
19279;DHT22;9773;47.062;15.446;2023-03-20T12:18:24;17.50;83.50
19279;DHT22;9773;47.062;15.446;2023-03-20T12:21:11;17.50;84.20
19279;DHT22;9773;47.062;15.446;2023-03-20T12:26:13;17.70;84.30
19279;DHT22;9773;47.062;15.446;2023-03-20T12:28:49;17.70;84.70
19279;DHT22;9773;47.062;15.446;2023-03-20T12:31:31;17.70;85.20
19279;DHT22;9773;47.062;15.446;2023-03-20T12:36:33;17.80;85.40
19279;DHT22;9773;47.062;15.446;2023-03-20T12:39:03;17.90;85.40
19279;DHT22;9773;47.062;15.446;2023-03-20T12:41:54;17.90;84.40
19279;DHT22;9773;47.062;15.446;2023-03-20T12:44:38;18.00;84.10
19279;DHT22;9773;47.062;15.446;2023-03-20T12:53:27;18.00;83.20
19279;DHT22;9773;47.062;15.446;2023-03-20T13:01:05;18.30;82.20
19279;DHT22;9773;47.062;15.446;2023-03-20T13:12:02;18.20;83.20
19279;DHT22;9773;47.062;15.446;2023-03-20T13:17:24;18.30;83.20
19279;DHT22;9773;47.062;15.446;2023-03-20T13:28:32;18.40;82.30
19279;DHT22;9773;47.062;15.446;2023-03-20T13:34:26;18.50;82.00
19279;DHT22;9773;47.062;15.446;2023-03-20T13:37:12;18.40;82.10
19279;DHT22;9773;47.062;15.446;2023-03-20T13:39:46;18.40;81.90
19279;DHT22;9773;47.062;15.446;2023-03-20T13:42:16;18.30;82.10
19279;DHT22;9773;47.062;15.446;2023-03-20T13:44:44;18.40;82.00
19279;DHT22;9773;47.062;15.446;2023-03-20T13:47:25;18.30;80.70
19279;DHT22;9773;47.062;15.446;2023-03-20T13:56:07;18.20;81.20
19279;DHT22;9773;47.062;15.446;2023-03-20T13:58:51;18.20;81.00
19279;DHT22;9773;47.062;15.446;2023-03-20T14:04:17;18.20;80.60
19279;DHT22;9773;47.062;15.446;2023-03-20T14:06:53;18.20;81.30
19279;DHT22;9773;47.062;15.446;2023-03-20T14:09:26;18.30;80.90
19279;DHT22;9773;47.062;15.446;2023-03-20T14:11:53;18.40;80.00
19279;DHT22;9773;47.062;15.446;2023-03-20T14:14:38;18.30;79.80
19279;DHT22;9773;47.062;15.446;2023-03-20T14:17:19;18.30;79.70
19279;DHT22;9773;47.062;15.446;2023-03-20T14:19:47;18.10;79.50
19279;DHT22;9773;47.062;15.446;2023-03-20T14:22:25;17.90;79.90
19279;DHT22;9773;47.062;15.446;2023-03-20T14:25:38;17.80;80.30
19279;DHT22;9773;47.062;15.446;2023-03-20T14:27:59;17.80;80.40
19279;DHT22;9773;47.062;15.446;2023-03-20T14:33:06;17.50;80.60
19279;DHT22;9773;47.062;15.446;2023-03-20T14:35:37;17.60;80.70
19279;DHT22;9773;47.062;15.446;2023-03-20T14:41:04;17.50;80.70
19279;DHT22;9773;47.062;15.446;2023-03-20T14:44:23;17.50;80.50
19279;DHT22;9773;47.062;15.446;2023-03-20T14:46:53;17.40;80.90
19279;DHT22;9773;47.062;15.446;2023-03-20T14:52:39;17.30;80.50
19279;DHT22;9773;47.062;15.446;2023-03-20T14:56:21;17.10;80.90
19279;DHT22;9773;47.062;15.446;2023-03-20T15:01:07;17.10;81.00
19279;DHT22;9773;47.062;15.446;2023-03-20T15:03:33;17.00;81.50
19279;DHT22;9773;47.062;15.446;2023-03-20T15:06:04;16.90;81.30
19279;DHT22;9773;47.062;15.446;2023-03-20T15:08:34;16.80;81.20
19279;DHT22;9773;47.062;15.446;2023-03-20T15:11:08;16.70;81.30
19279;DHT22;9773;47.062;15.446;2023-03-20T15:13:35;16.60;81.10
19279;DHT22;9773;47.062;15.446;2023-03-20T15:16:06;16.60;81.20
19279;DHT22;9773;47.062;15.446;2023-03-20T15:18:41;16.60;81.40
19279;DHT22;9773;47.062;15.446;2023-03-20T15:21:16;16.60;81.60
19279;DHT22;9773;47.062;15.446;2023-03-20T15:23:45;16.60;81.20
19279;DHT22;9773;47.062;15.446;2023-03-20T15:26:15;16.60;81.30
19279;DHT22;9773;47.062;15.446;2023-03-20T15:28:42;16.50;81.00
19279;DHT22;9773;47.062;15.446;2023-03-20T15:31:23;16.40;81.40
19279;DHT22;9773;47.062;15.446;2023-03-20T15:33:50;16.40;81.50
19279;DHT22;9773;47.062;15.446;2023-03-20T15:36:19;16.30;81.70
19279;DHT22;9773;47.062;15.446;2023-03-20T15:38:46;16.20;81.70
19279;DHT22;9773;47.062;15.446;2023-03-20T15:41:28;16.20;81.60
19279;DHT22;9773;47.062;15.446;2023-03-20T15:44:03;16.20;81.70
19279;DHT22;9773;47.062;15.446;2023-03-20T15:46:28;16.20;81.60
19279;DHT22;9773;47.062;15.446;2023-03-20T15:48:54;16.00;81.80
19279;DHT22;9773;47.062;15.446;2023-03-20T15:51:23;15.90;82.20
19279;DHT22;9773;47.062;15.446;2023-03-20T15:53:50;15.80;82.60
19279;DHT22;9773;47.062;15.446;2023-03-20T15:56:18;15.80;82.70
19279;DHT22;9773;47.062;15.446;2023-03-20T15:58:49;15.70;83.60
19279;DHT22;9773;47.062;15.446;2023-03-20T16:01:21;15.60;84.10
19279;DHT22;9773;47.062;15.446;2023-03-20T16:03:48;15.60;84.60
19279;DHT22;9773;47.062;15.446;2023-03-20T16:06:18;15.60;85.10
19279;DHT22;9773;47.062;15.446;2023-03-20T16:08:44;15.50;86.00
19279;DHT22;9773;47.062;15.446;2023-03-20T16:11:14;15.50;85.70
19279;DHT22;9773;47.062;15.446;2023-03-20T16:13:45;15.40;86.10
19279;DHT22;9773;47.062;15.446;2023-03-20T16:16:17;15.40;86.60
19279;DHT22;9773;47.062;15.446;2023-03-20T16:18:44;15.40;86.60
19279;DHT22;9773;47.062;15.446;2023-03-20T16:21:18;15.30;86.60
19279;DHT22;9773;47.062;15.446;2023-03-20T16:23:48;15.20;87.20
19279;DHT22;9773;47.062;15.446;2023-03-20T16:26:18;15.10;87.20
19279;DHT22;9773;47.062;15.446;2023-03-20T16:28:55;15.10;87.60
19279;DHT22;9773;47.062;15.446;2023-03-20T16:31:29;15.10;87.90
19279;DHT22;9773;47.062;15.446;2023-03-20T16:34:05;15.00;88.00
19279;DHT22;9773;47.062;15.446;2023-03-20T16:36:33;15.00;88.20
19279;DHT22;9773;47.062;15.446;2023-03-20T16:41:38;15.00;88.60
19279;DHT22;9773;47.062;15.446;2023-03-20T16:44:16;15.00;88.50
19279;DHT22;9773;47.062;15.446;2023-03-20T16:49:51;14.90;88.90
19279;DHT22;9773;47.062;15.446;2023-03-20T16:52:29;14.80;89.10
19279;DHT22;9773;47.062;15.446;2023-03-20T16:54:57;14.70;89.20
19279;DHT22;9773;47.062;15.446;2023-03-20T16:57:24;14.60;89.30
19279;DHT22;9773;47.062;15.446;2023-03-20T16:59:52;14.50;89.80
19279;DHT22;9773;47.062;15.446;2023-03-20T17:02:26;14.50;89.80
19279;DHT22;9773;47.062;15.446;2023-03-20T17:05:05;14.50;90.10
19279;DHT22;9773;47.062;15.446;2023-03-20T17:07:31;14.40;89.90
19279;DHT22;9773;47.062;15.446;2023-03-20T17:12:42;14.30;90.20
19279;DHT22;9773;47.062;15.446;2023-03-20T17:15:14;14.30;90.20
19279;DHT22;9773;47.062;15.446;2023-03-20T17:17:41;14.30;90.20
19279;DHT22;9773;47.062;15.446;2023-03-20T17:20:10;14.20;90.30
19279;DHT22;9773;47.062;15.446;2023-03-20T17:22:42;14.20;90.20
19279;DHT22;9773;47.062;15.446;2023-03-20T17:25:09;14.20;90.30
19279;DHT22;9773;47.062;15.446;2023-03-20T17:27:36;14.20;90.40
19279;DHT22;9773;47.062;15.446;2023-03-20T17:30:05;14.20;90.50
19279;DHT22;9773;47.062;15.446;2023-03-20T17:32:32;14.10;90.50
19279;DHT22;9773;47.062;15.446;2023-03-20T17:34:58;14.10;90.50
19279;DHT22;9773;47.062;15.446;2023-03-20T17:37:26;14.10;90.60
19279;DHT22;9773;47.062;15.446;2023-03-20T17:39:52;14.10;90.60
19279;DHT22;9773;47.062;15.446;2023-03-20T17:42:25;14.10;90.90
19279;DHT22;9773;47.062;15.446;2023-03-20T17:44:56;14.00;90.80
19279;DHT22;9773;47.062;15.446;2023-03-20T17:47:24;14.00;91.00
19279;DHT22;9773;47.062;15.446;2023-03-20T17:49:51;14.00;91.00
19279;DHT22;9773;47.062;15.446;2023-03-20T17:52:21;14.00;91.10
19279;DHT22;9773;47.062;15.446;2023-03-20T17:54:48;14.00;91.30
19279;DHT22;9773;47.062;15.446;2023-03-20T17:59:49;13.90;91.30
19279;DHT22;9773;47.062;15.446;2023-03-20T18:02:16;13.90;91.30
19279;DHT22;9773;47.062;15.446;2023-03-20T18:04:44;13.90;91.40
19279;DHT22;9773;47.062;15.446;2023-03-20T18:07:10;13.90;91.40
19279;DHT22;9773;47.062;15.446;2023-03-20T18:09:40;13.90;91.40
19279;DHT22;9773;47.062;15.446;2023-03-20T18:12:33;13.90;91.40
19279;DHT22;9773;47.062;15.446;2023-03-20T18:15:00;13.80;91.50
19279;DHT22;9773;47.062;15.446;2023-03-20T18:17:32;13.80;91.50
19279;DHT22;9773;47.062;15.446;2023-03-20T18:19:58;13.80;91.70
19279;DHT22;9773;47.062;15.446;2023-03-20T18:22:24;13.70;91.60